Time;durP1;ratioP1;P1;durP2;ratioP2;P2;SDS_P1;SDS_P2;PMS_P1;PMS_P2;Temp;Humidity;BMP_temperature;BMP_pressure;BME280_temperature;BME280_humidity;BME280_pressure;Samples;Min_cycle;Max_cycle;Signal;HPM_P1;HPM_P2
2024/04/22 00:00:32;;;;;;;4.15;3.70;;;;;;;4.96;57.63;99400.84;5415972;26;19999;-63
2024/04/22 00:02:59;;;;;;;5.03;3.80;;;;;;;4.99;56.86;99405.66;5415103;26;20003;-63
2024/04/22 00:05:26;;;;;;;5.10;4.00;;;;;;;4.94;56.84;99395.72;5439417;26;20000;-62
2024/04/22 00:07:52;;;;;;;5.60;4.07;;;;;;;4.81;57.58;99402.63;5444498;26;20018;-62
2024/04/22 00:10:19;;;;;;;5.88;4.20;;;;;;;4.70;57.43;99401.16;5417167;26;19991;-63
2024/04/22 00:12:46;;;;;;;4.18;3.45;;;;;;;4.47;58.04;99407.34;5417808;26;20011;-63
2024/04/22 00:15:13;;;;;;;4.63;3.80;;;;;;;4.34;58.47;99408.03;5417758;26;20444;-63
2024/04/22 00:17:39;;;;;;;4.72;3.53;;;;;;;4.25;58.73;99405.94;5416116;26;20071;-63
2024/04/22 00:20:06;;;;;;;9.02;3.72;;;;;;;4.18;59.25;99400.06;5416158;26;19999;-63
2024/04/22 00:22:33;;;;;;;5.55;3.50;;;;;;;4.15;59.00;99400.63;5414207;26;20015;-63
2024/04/22 00:25:00;;;;;;;5.18;3.78;;;;;;;4.20;59.62;99405.97;5414483;26;20011;-62
2024/04/22 00:27:28;;;;;;;4.95;4.30;;;;;;;4.26;59.58;99396.75;5416113;26;19999;-62
2024/04/22 00:29:55;;;;;;;5.80;3.20;;;;;;;4.31;59.30;99400.50;5416202;26;19995;-62
2024/04/22 00:32:21;;;;;;;6.03;3.85;;;;;;;4.35;58.86;99396.94;5416037;26;20000;-62
2024/04/22 00:34:48;;;;;;;4.15;3.45;;;;;;;4.36;58.90;99397.75;5424748;26;20000;-62
2024/04/22 00:37:15;;;;;;;4.03;3.30;;;;;;;4.26;59.19;99396.75;5416057;26;20007;-63
2024/04/22 00:39:41;;;;;;;4.93;3.75;;;;;;;4.28;59.17;99404.56;5416504;26;20003;-63
2024/04/22 00:42:08;;;;;;;4.35;3.95;;;;;;;4.31;58.95;99408.59;5415755;26;19999;-63
2024/04/22 00:44:35;;;;;;;5.45;4.25;;;;;;;4.25;59.11;99402.41;5416121;26;20003;-63
2024/04/22 00:47:02;;;;;;;6.63;3.80;;;;;;;4.03;58.95;99404.78;5418147;26;20010;-62
2024/04/22 00:49:29;;;;;;;4.70;4.07;;;;;;;3.83;60.08;99405.78;5416470;26;20528;-62
2024/04/22 00:51:56;;;;;;;6.32;4.40;;;;;;;3.77;60.04;99409.59;5415475;26;20069;-63
2024/04/22 00:54:23;;;;;;;4.72;4.10;;;;;;;3.75;60.80;99411.78;5415716;26;19995;-63
2024/04/22 00:56:50;;;;;;;4.55;3.95;;;;;;;3.71;60.73;99410.72;5415760;26;20414;-63
2024/04/22 00:59:17;;;;;;;6.53;3.95;;;;;;;3.66;60.65;99416.94;5416264;26;19995;-62
2024/04/22 01:01:45;;;;;;;4.78;4.22;;;;;;;3.61;60.83;99412.41;5415623;26;20077;-62
2024/04/22 01:04:11;;;;;;;6.47;4.97;;;;;;;3.55;60.75;99404.63;5425562;26;20003;-62
2024/04/22 01:06:38;;;;;;;4.55;3.83;;;;;;;3.50;61.40;99413.53;5414048;26;20007;-63
2024/04/22 01:09:05;;;;;;;5.47;4.47;;;;;;;3.39;61.27;99409.31;5415830;26;20332;-62
2024/04/22 01:11:32;;;;;;;9.05;5.95;;;;;;;3.35;61.25;99413.66;5415195;26;20003;-63
2024/04/22 01:13:59;;;;;;;6.82;4.57;;;;;;;3.40;61.63;99416.31;5415600;26;20000;-63
2024/04/22 01:16:25;;;;;;;7.05;4.50;;;;;;;3.31;61.97;99415.28;5413906;26;20015;-63
2024/04/22 01:18:52;;;;;;;5.93;4.38;;;;;;;3.40;61.77;99415.53;5415565;26;20452;-63
2024/04/22 01:21:28;;;;;;;6.90;4.93;;;;;;;3.40;62.11;99410.94;5415324;26;20012;-63
2024/04/22 01:23:58;;;;;;;6.43;4.47;;;;;;;3.47;61.86;99408.72;5416513;26;20003;-62
2024/04/22 01:26:25;;;;;;;6.82;4.65;;;;;;;3.41;61.24;99411.75;5415910;26;20456;-63
2024/04/22 01:28:51;;;;;;;6.20;4.20;;;;;;;3.28;61.94;99413.97;5415754;26;20010;-62
2024/04/22 01:31:18;;;;;;;4.88;4.38;;;;;;;3.31;62.04;99408.00;5415913;26;20432;-63
2024/04/22 01:33:45;;;;;;;6.70;4.13;;;;;;;3.36;61.69;99398.28;5426453;26;20003;-63
2024/04/22 01:36:12;;;;;;;6.53;4.00;;;;;;;3.28;62.12;99399.69;5414536;26;20004;-62
2024/04/22 01:38:39;;;;;;;5.00;4.10;;;;;;;3.23;61.48;99399.72;5415531;26;20500;-62
2024/04/22 01:41:05;;;;;;;5.05;4.47;;;;;;;3.17;61.89;99398.13;5415171;26;20445;-62
2024/04/22 01:43:32;;;;;;;5.20;4.00;;;;;;;3.20;62.04;99400.28;5413835;26;20003;-63
2024/04/22 01:45:59;;;;;;;4.75;3.78;;;;;;;3.22;62.42;99395.41;5415568;26;20448;-62
2024/04/22 01:48:26;;;;;;;5.10;4.03;;;;;;;3.32;62.45;99398.03;5413237;26;20464;-63
2024/04/22 01:50:52;;;;;;;7.78;3.72;;;;;;;3.31;62.17;99391.84;5414905;26;20348;-62
2024/04/22 01:53:19;;;;;;;4.18;3.75;;;;;;;3.26;61.82;99396.44;5415122;26;20448;-62
2024/04/22 01:55:46;;;;;;;6.68;4.45;;;;;;;3.16;62.03;99391.94;5414945;26;19995;-62
2024/04/22 01:58:12;;;;;;;4.93;4.18;;;;;;;3.07;62.72;99403.56;5414876;26;20003;-62
2024/04/22 02:00:39;;;;;;;6.18;4.50;;;;;;;3.09;63.19;99393.31;5414445;26;20459;-62
2024/04/22 02:03:06;;;;;;;5.53;4.32;;;;;;;3.26;62.66;99396.44;5414790;26;20467;-62
2024/04/22 02:05:33;;;;;;;5.07;4.15;;;;;;;3.34;61.84;99395.84;5438002;26;20015;-62
2024/04/22 02:07:59;;;;;;;4.35;3.92;;;;;;;3.33;61.95;99391.53;5414807;26;20081;-62
2024/04/22 02:10:26;;;;;;;6.03;3.67;;;;;;;3.44;62.16;99392.31;5412439;26;20465;-63
2024/04/22 02:12:53;;;;;;;5.72;4.63;;;;;;;3.52;61.90;99392.50;5414674;26;20080;-63
2024/04/22 02:15:19;;;;;;;6.53;4.55;;;;;;;3.48;61.19;99385.25;5414812;26;20006;-62
2024/04/22 02:17:46;;;;;;;4.63;3.90;;;;;;;3.39;61.70;99387.75;5414244;26;20003;-63
2024/04/22 02:20:13;;;;;;;5.25;4.20;;;;;;;3.30;61.37;99384.84;5414181;26;20006;-63
2024/04/22 02:22:40;;;;;;;5.72;3.75;;;;;;;3.28;61.86;99386.19;5414396;26;20010;-62
2024/04/22 02:25:07;;;;;;;6.45;3.92;;;;;;;3.37;61.67;99389.13;5414594;26;20027;-63
2024/04/22 02:27:33;;;;;;;6.55;4.03;;;;;;;3.49;61.43;99386.88;5416619;26;20076;-62
2024/04/22 02:30:00;;;;;;;4.53;3.80;;;;;;;3.50;61.78;99377.69;5418070;26;20010;-63
2024/04/22 02:32:28;;;;;;;7.18;4.43;;;;;;;3.54;61.42;99376.88;5418922;26;20471;-62
2024/04/22 02:34:55;;;;;;;5.45;4.15;;;;;;;3.51;61.57;99380.09;5429245;26;20073;-62
2024/04/22 02:37:21;;;;;;;4.65;3.90;;;;;;;3.44;61.13;99378.81;5417955;26;20022;-62
2024/04/22 02:39:48;;;;;;;5.13;3.90;;;;;;;3.43;61.57;99379.91;5415759;26;20442;-62
2024/04/22 02:42:15;;;;;;;6.38;4.32;;;;;;;3.42;61.50;99375.59;5417568;26;20076;-62
2024/04/22 02:44:42;;;;;;;5.07;3.97;;;;;;;3.46;61.15;99374.75;5418016;26;20007;-63
2024/04/22 02:47:08;;;;;;;5.82;4.90;;;;;;;3.48;60.85;99369.09;5417743;26;20007;-62
2024/04/22 02:49:35;;;;;;;5.60;4.63;;;;;;;3.39;61.15;99371.59;5417642;26;20036;-63
2024/04/22 02:52:02;;;;;;;6.65;4.15;;;;;;;3.31;61.76;99366.78;5417563;26;20014;-63
2024/04/22 02:54:31;;;;;;;5.63;4.45;;;;;;;3.31;61.82;99369.47;5415935;26;20006;-63
2024/04/22 02:56:58;;;;;;;4.72;3.92;;;;;;;3.31;61.88;99370.28;5417935;26;20448;-62
2024/04/22 02:59:25;;;;;;;7.63;4.07;;;;;;;3.32;61.68;99363.78;5417840;26;20002;-62
2024/04/22 03:01:51;;;;;;;7.97;4.53;;;;;;;3.30;61.44;99362.47;5417147;26;20014;-62
2024/04/22 03:04:18;;;;;;;8.63;4.97;;;;;;;3.28;61.79;99365.44;5426171;26;20072;-63
2024/04/22 03:06:46;;;;;;;7.45;4.85;;;;;;;3.25;61.72;99368.69;5417494;26;20019;-62
2024/04/22 03:09:13;;;;;;;5.53;4.57;;;;;;;3.24;61.32;99368.97;5417224;26;19999;-63
2024/04/22 03:11:40;;;;;;;5.80;4.32;;;;;;;3.23;61.42;99375.47;5417327;26;20003;-63
2024/04/22 03:14:07;;;;;;;7.55;4.78;;;;;;;3.25;61.44;99376.78;5416467;26;20127;-63
2024/04/22 03:16:33;;;;;;;7.30;4.07;;;;;;;3.32;61.42;99369.19;5415914;26;20464;-63
2024/04/22 03:19:01;;;;;;;8.27;4.68;;;;;;;3.32;61.85;99363.00;5415692;26;20000;-63
2024/04/22 03:21:28;;;;;;;5.35;4.85;;;;;;;3.25;61.65;99362.50;5445658;26;20072;-64
2024/04/22 03:23:54;;;;;;;6.60;4.75;;;;;;;3.20;61.34;99371.44;5417616;26;20010;-63
2024/04/22 03:26:21;;;;;;;5.78;3.78;;;;;;;3.10;61.58;99368.78;5417398;26;20003;-63
2024/04/22 03:28:48;;;;;;;6.97;4.35;;;;;;;2.97;61.67;99364.81;5417191;26;19996;-63
2024/04/22 03:31:14;;;;;;;7.50;4.85;;;;;;;2.86;62.50;99368.66;5415164;26;20006;-64
2024/04/22 03:33:41;;;;;;;5.93;4.32;;;;;;;2.71;62.24;99368.72;5425452;26;20009;-63
2024/04/22 03:36:08;;;;;;;10.38;4.70;;;;;;;2.54;62.55;99358.28;5418491;26;20015;-64
2024/04/22 03:38:35;;;;;;;6.93;4.40;;;;;;;2.46;63.01;99366.13;5416566;26;20000;-63
2024/04/22 03:41:01;;;;;;;5.93;4.38;;;;;;;2.48;63.23;99359.38;5416574;26;20015;-64
2024/04/22 03:43:28;;;;;;;5.43;4.43;;;;;;;2.49;63.56;99362.88;5417139;26;19999;-63
2024/04/22 03:51:26;;;;;;;8.70;5.10;;;;;;;2.54;63.99;99360.97;5416797;26;19996;-63
2024/04/22 03:53:52;;;;;;;5.50;4.15;;;;;;;2.57;63.76;99355.03;5415424;26;20503;-63
2024/04/22 03:56:19;;;;;;;34.45;15.77;;;;;;;2.60;63.13;99353.66;5416683;26;20006;-62
2024/04/22 03:58:45;;;;;;;11.45;7.43;;;;;;;2.63;63.52;99351.25;5415065;26;20010;-62
2024/04/22 04:01:12;;;;;;;8.07;4.55;;;;;;;2.76;63.80;99351.72;5416330;26;20006;-63
2024/04/22 04:03:39;;;;;;;4.85;4.28;;;;;;;2.86;63.33;99354.38;5424129;26;20010;-63
2024/04/22 04:06:06;;;;;;;7.13;4.03;;;;;;;2.82;62.94;99356.81;5418809;26;20427;-64
2024/04/22 04:08:32;;;;;;;4.85;4.30;;;;;;;2.85;62.47;99347.38;5416742;26;20010;-61
2024/04/22 04:11:04;;;;;;;7.53;4.05;;;;;;;2.89;62.31;99353.81;5416100;26;20003;-60
2024/04/22 04:13:31;;;;;;;5.15;3.97;;;;;;;2.91;62.07;99349.75;5414815;26;20402;-61
2024/04/22 04:15:58;;;;;;;6.35;3.88;;;;;;;2.94;62.39;99357.28;5416367;26;20000;-61
2024/04/22 04:18:25;;;;;;;5.45;4.00;;;;;;;2.92;61.84;99356.75;5417426;26;20003;-62
2024/04/22 04:20:51;;;;;;;5.43;4.18;;;;;;;2.91;62.07;99352.44;5417312;26;20006;-61
2024/04/22 04:23:18;;;;;;;5.60;4.13;;;;;;;2.90;62.17;99353.53;5415227;26;20072;-62
2024/04/22 04:25:45;;;;;;;5.22;4.57;;;;;;;2.87;61.62;99356.78;5416419;26;19999;-61
2024/04/22 04:28:12;;;;;;;5.38;4.40;;;;;;;2.88;61.73;99354.91;5416353;26;20348;-61
2024/04/22 04:30:38;;;;;;;11.48;4.40;;;;;;;2.91;61.56;99357.84;5415835;26;20003;-61
2024/04/22 04:33:06;;;;;;;6.43;4.70;;;;;;;2.97;61.87;99358.59;5416538;26;20011;-62
2024/04/22 04:35:32;;;;;;;4.75;4.18;;;;;;;2.99;61.30;99362.66;5426729;26;20084;-61
2024/04/22 04:37:59;;;;;;;6.93;5.38;;;;;;;3.08;61.84;99364.75;5440485;26;20009;-62
2024/04/22 04:40:26;;;;;;;6.60;4.50;;;;;;;3.14;61.50;99369.03;5416443;26;19991;-62
2024/04/22 04:42:52;;;;;;;12.02;5.20;;;;;;;3.18;61.50;99370.09;5414655;26;20007;-62
2024/04/22 04:45:19;;;;;;;9.05;5.13;;;;;;;3.22;61.29;99366.56;5414467;26;20430;-62
2024/04/22 04:47:47;;;;;;;7.70;4.13;;;;;;;3.26;61.16;99372.19;5474946;26;20554;-62
2024/04/22 04:50:14;;;;;;;7.47;4.75;;;;;;;3.25;60.91;99373.28;5473493;26;20006;-62
2024/04/22 04:52:41;;;;;;;6.68;4.57;;;;;;;3.30;61.33;99374.06;5416334;26;20468;-62
2024/04/22 04:55:08;;;;;;;12.02;5.72;;;;;;;3.41;61.06;99382.09;5415974;26;20071;-62
2024/04/22 04:57:34;;;;;;;8.45;5.40;;;;;;;3.45;61.04;99381.25;5415993;26;20008;-61
2024/04/22 05:00:01;;;;;;;9.57;5.68;;;;;;;3.53;61.01;99385.22;5418162;26;19995;-62
2024/04/22 05:02:28;;;;;;;7.10;5.25;;;;;;;3.61;61.37;99384.63;5420576;26;20000;-62
2024/04/22 05:04:55;;;;;;;6.53;4.82;;;;;;;3.69;61.13;99378.63;5436427;26;20000;-62
2024/04/22 05:07:21;;;;;;;8.98;4.82;;;;;;;3.79;60.36;99385.84;5428540;26;20007;-62
2024/04/22 05:09:50;;;;;;;6.40;4.53;;;;;;;3.87;60.04;99388.72;5426529;26;19999;-62
2024/04/22 05:12:17;;;;;;;7.13;4.80;;;;;;;3.98;60.11;99386.75;5425667;26;20000;-62
2024/04/22 05:14:43;;;;;;;7.15;5.15;;;;;;;4.07;59.78;99397.72;5421704;26;20012;-61
2024/04/22 05:17:10;;;;;;;6.88;5.22;;;;;;;4.08;59.85;99397.44;5430009;26;19999;-61
2024/04/22 05:19:37;;;;;;;8.50;4.93;;;;;;;4.10;60.12;99397.19;5423421;26;19995;-61
2024/04/22 05:22:04;;;;;;;9.23;5.50;;;;;;;4.16;59.69;99398.75;5417247;26;20015;-61
2024/04/22 05:24:30;;;;;;;10.13;6.70;;;;;;;4.07;59.87;99398.53;5418008;26;19996;-61
2024/04/22 05:26:57;;;;;;;7.72;5.97;;;;;;;4.05;60.07;99397.22;5388095;26;20004;-61
2024/04/22 05:29:24;;;;;;;7.70;5.53;;;;;;;4.13;60.31;99396.63;5416193;26;19998;-62
2024/04/22 05:31:51;;;;;;;6.57;5.22;;;;;;;4.23;59.94;99396.50;5415533;26;19999;-61
2024/04/22 05:37:03;;;;;;;7.10;5.78;;;;;;;4.49;59.33;99395.19;5415315;26;20537;-62
2024/04/22 05:39:30;;;;;;;9.15;5.65;;;;;;;4.62;59.65;99399.06;5413237;26;20000;-62
2024/04/22 05:41:57;;;;;;;7.85;5.53;;;;;;;4.64;59.21;99391.47;5414972;26;19995;-62
2024/04/22 05:44:23;;;;;;;10.35;5.70;;;;;;;4.44;59.03;99395.22;5415152;26;20344;-62
2024/04/22 05:46:50;;;;;;;11.43;6.65;;;;;;;4.35;59.86;99393.44;5415453;26;19996;-62
2024/04/22 05:49:17;;;;;;;10.38;6.03;;;;;;;4.52;60.06;99396.50;5414769;26;20010;-62
2024/04/22 05:51:43;;;;;;;10.45;5.95;;;;;;;4.73;59.54;99389.75;5412852;26;20028;-62
2024/04/22 05:54:10;;;;;;;11.40;6.50;;;;;;;4.90;58.95;99397.41;5415203;26;20027;-62
2024/04/22 05:56:37;;;;;;;11.70;6.63;;;;;;;4.95;59.30;99391.94;5414775;26;20072;-61
2024/04/22 05:59:06;;;;;;;10.32;6.63;;;;;;;5.10;59.09;99390.94;5414641;26;19999;-62
2024/04/22 06:01:32;;;;;;;11.07;5.93;;;;;;;5.21;58.41;99400.53;5416733;26;20003;-63
2024/04/22 06:03:59;;;;;;;8.38;5.82;;;;;;;5.41;58.32;99394.03;5426544;26;20007;-62
2024/04/22 06:06:26;;;;;;;8.85;6.15;;;;;;;5.49;58.13;99387.94;5431273;26;20015;-63
2024/04/22 06:08:52;;;;;;;10.30;6.22;;;;;;;5.63;58.30;99390.72;5418026;26;20043;-63
2024/04/22 06:11:19;;;;;;;7.75;5.45;;;;;;;5.61;56.43;99393.72;5417613;26;20342;-62
2024/04/22 06:13:46;;;;;;;12.70;5.80;;;;;;;5.50;56.87;99383.34;5418090;26;20011;-62
2024/04/22 06:16:12;;;;;;;7.28;5.50;;;;;;;5.69;57.05;99384.13;5418019;26;19996;-63
2024/04/22 06:18:39;;;;;;;7.55;5.88;;;;;;;5.85;56.50;99388.19;5417967;26;20456;-63
2024/04/22 06:21:06;;;;;;;8.25;6.22;;;;;;;5.99;56.41;99389.09;5415884;26;20321;-63
2024/04/22 06:23:33;;;;;;;7.32;5.38;;;;;;;6.08;55.81;99387.28;5417975;26;20015;-63
2024/04/22 06:26:06;;;;;;;8.88;5.30;;;;;;;6.13;56.09;99380.16;5418075;26;19996;-63
2024/04/22 06:28:33;;;;;;;7.83;5.10;;;;;;;6.22;55.21;99379.19;5416118;26;20014;-64
2024/04/22 06:31:00;;;;;;;7.00;5.13;;;;;;;6.27;54.64;99376.41;5415844;26;19996;-64
2024/04/22 06:33:28;;;;;;;11.13;4.68;;;;;;;6.14;54.57;99369.06;5420175;26;19999;-63
2024/04/22 06:35:55;;;;;;;6.65;5.07;;;;;;;6.28;54.56;99375.28;5422529;26;20084;-63
2024/04/22 06:38:22;;;;;;;10.90;5.10;;;;;;;6.47;54.94;99377.13;5415746;26;19999;-63
2024/04/22 06:40:49;;;;;;;6.65;5.05;;;;;;;6.66;54.57;99384.06;5417584;26;20344;-63
2024/04/22 06:43:16;;;;;;;9.63;5.88;;;;;;;6.82;54.45;99379.13;5419647;26;20376;-64
2024/04/22 06:45:44;;;;;;;5.95;4.93;;;;;;;6.98;53.95;99375.00;5420626;26;20003;-64
2024/04/22 06:48:10;;;;;;;7.05;4.65;;;;;;;7.13;53.44;99373.09;5449247;26;20309;-64
2024/04/22 06:50:38;;;;;;;6.72;4.60;;;;;;;7.00;51.65;99366.56;5418048;26;20076;-64
2024/04/22 06:53:05;;;;;;;6.38;4.95;;;;;;;6.81;51.97;99372.09;5418386;26;20020;-63
2024/04/22 06:55:32;;;;;;;7.13;5.07;;;;;;;6.80;51.88;99375.94;5417698;26;20441;-64
2024/04/22 06:57:58;;;;;;;5.97;4.35;;;;;;;6.84;51.83;99376.13;5417935;26;20398;-63
2024/04/22 07:00:26;;;;;;;8.45;4.68;;;;;;;7.07;52.43;99366.97;5415461;26;20452;-64
2024/04/22 07:02:52;;;;;;;8.77;5.40;;;;;;;7.24;51.85;99360.88;5417996;26;20011;-63
2024/04/22 07:05:20;;;;;;;6.68;4.88;;;;;;;7.44;52.18;99370.50;5440622;26;20004;-63
2024/04/22 07:07:46;;;;;;;12.18;5.03;;;;;;;7.63;51.56;99373.06;5445669;26;20023;-64
2024/04/22 07:10:14;;;;;;;6.38;4.57;;;;;;;7.77;51.31;99371.84;5417478;26;20076;-64
2024/04/22 07:12:41;;;;;;;7.78;4.68;;;;;;;7.87;51.25;99373.53;5417244;26;20004;-64
2024/04/22 07:15:09;;;;;;;5.78;4.80;;;;;;;8.02;50.67;99375.88;5418828;26;20004;-64
2024/04/22 07:17:36;;;;;;;7.22;4.30;;;;;;;7.92;49.79;99367.16;5419523;26;20007;-64
2024/04/22 07:20:07;;;;;;;5.03;4.18;;;;;;;7.93;49.49;99371.50;5416655;26;20080;-64
2024/04/22 07:22:37;;;;;;;5.88;4.70;;;;;;;7.93;49.92;99366.84;5417818;26;19992;-63
2024/04/22 07:25:05;;;;;;;6.30;4.45;;;;;;;8.07;49.57;99373.03;5418229;26;20046;-63
2024/04/22 07:27:33;;;;;;;5.05;4.03;;;;;;;8.14;49.70;99367.13;5418704;26;20463;-64
2024/04/22 07:30:03;;;;;;;7.38;4.32;;;;;;;8.23;48.81;99370.72;5416233;26;20003;-63
2024/04/22 07:32:30;;;;;;;5.75;4.63;;;;;;;8.11;47.81;99359.63;5416955;26;20463;-64
2024/04/22 07:34:57;;;;;;;6.32;4.55;;;;;;;8.06;48.72;99366.00;5427355;26;20410;-63
2024/04/22 07:37:31;;;;;;;8.05;5.53;;;;;;;8.16;48.53;99368.44;5418561;26;20010;-63
2024/04/22 07:40:06;;;;;;;6.22;4.63;;;;;;;8.33;48.63;99366.91;5416404;26;20027;-64
2024/04/22 07:42:32;;;;;;;7.97;5.00;;;;;;;8.43;48.17;99363.97;5417296;26;20003;-63
2024/04/22 07:44:59;;;;;;;7.35;4.32;;;;;;;8.59;47.64;99364.38;5421280;26;20359;-64
2024/04/22 07:47:26;;;;;;;4.53;3.58;;;;;;;8.64;47.58;99366.94;5418415;26;19999;-63
2024/04/22 07:49:53;;;;;;;7.78;4.13;;;;;;;8.71;47.46;99367.25;5417558;26;20000;-63
2024/04/22 07:52:20;;;;;;;6.55;3.65;;;;;;;8.75;47.28;99365.53;5415811;26;20011;-62
2024/04/22 07:54:47;;;;;;;4.47;3.60;;;;;;;8.83;47.72;99364.75;5417430;26;20023;-63
2024/04/22 07:57:14;;;;;;;6.80;4.10;;;;;;;8.98;47.10;99368.97;5417738;26;20011;-62
2024/04/22 07:59:41;;;;;;;4.60;3.60;;;;;;;9.03;46.69;99369.59;5417441;26;19999;-63
2024/04/22 08:02:08;;;;;;;4.78;3.30;;;;;;;9.13;46.85;99367.72;5417749;26;20344;-64
2024/04/22 08:04:35;;;;;;;4.88;3.50;;;;;;;9.22;47.16;99360.34;5432314;26;20000;-65
2024/04/22 08:07:03;;;;;;;5.15;3.50;;;;;;;9.37;46.37;99360.69;5420565;26;20007;-64
2024/04/22 08:09:30;;;;;;;7.63;3.90;;;;;;;9.35;45.52;99353.97;5422184;26;20007;-64
2024/04/22 08:11:57;;;;;;;4.68;3.75;;;;;;;9.35;46.14;99351.25;5419203;26;20014;-63
2024/04/22 08:14:24;;;;;;;3.38;2.80;;;;;;;9.47;44.01;99354.09;5416262;26;20007;-63
2024/04/22 08:16:51;;;;;;;4.50;2.63;;;;;;;9.49;42.87;99356.53;5416949;26;20067;-63
2024/04/22 08:19:18;;;;;;;5.75;2.53;;;;;;;9.55;41.11;99349.81;5475181;26;20049;-64
2024/04/22 08:21:45;;;;;;;4.22;2.58;;;;;;;9.45;41.09;99352.84;5416646;26;20007;-63
2024/04/22 08:24:12;;;;;;;3.13;2.83;;;;;;;9.49;40.33;99359.25;5415478;26;20000;-63
2024/04/22 08:26:38;;;;;;;4.82;3.15;;;;;;;9.55;39.59;99345.16;5414860;26;19999;-64
2024/04/22 08:29:05;;;;;;;2.85;2.40;;;;;;;9.64;39.02;99347.88;5417413;26;19999;-63
2024/04/22 08:31:34;;;;;;;3.55;2.70;;;;;;;9.49;37.95;99349.19;5418587;26;20456;-63
2024/04/22 08:34:00;;;;;;;4.53;2.85;;;;;;;9.50;38.93;99352.69;5428138;26;19995;-64
2024/04/22 08:36:27;;;;;;;2.88;2.58;;;;;;;9.55;38.95;99341.63;5417700;26;20054;-63
2024/04/22 08:38:54;;;;;;;2.90;2.60;;;;;;;9.69;40.00;99343.06;5418739;26;20014;-63
2024/04/22 08:41:21;;;;;;;5.35;2.55;;;;;;;9.92;38.51;99345.59;5417425;26;20000;-62
2024/04/22 08:43:49;;;;;;;4.95;2.75;;;;;;;10.06;36.93;99337.25;5418223;26;20011;-63
2024/04/22 08:46:17;;;;;;;3.13;2.30;;;;;;;10.02;36.98;99334.34;5418976;26;20017;-62
2024/04/22 08:48:44;;;;;;;4.35;2.35;;;;;;;10.34;35.63;99340.38;5418976;26;20010;-62
2024/04/22 08:51:11;;;;;;;2.47;2.03;;;;;;;10.35;35.53;99339.25;5415493;26;20022;-63
2024/04/22 08:53:38;;;;;;;3.25;2.25;;;;;;;10.51;34.01;99345.78;5415581;26;20007;-63
2024/04/22 08:56:06;;;;;;;2.88;2.35;;;;;;;10.43;35.29;99330.25;5414868;26;20015;-63
2024/04/22 08:58:32;;;;;;;2.40;2.20;;;;;;;10.48;35.14;99347.22;5414944;26;20032;-63
2024/04/22 09:01:04;;;;;;;2.65;2.03;;;;;;;10.52;34.76;99328.28;5416825;26;20011;-63
2024/04/22 09:03:31;;;;;;;2.85;2.20;;;;;;;10.70;34.13;99332.53;5422050;26;20071;-64
2024/04/22 09:05:57;;;;;;;2.70;2.40;;;;;;;10.91;33.72;99332.56;5420275;26;20004;-63
2024/04/22 09:08:24;;;;;;;4.63;2.30;;;;;;;11.25;32.10;99326.06;5416149;26;20014;-63
2024/04/22 09:11:00;;;;;;;2.33;1.77;;;;;;;11.32;30.85;99322.81;5444138;26;20012;-63
2024/04/22 09:13:30;;;;;;;4.03;2.00;;;;;;;11.33;31.10;99333.38;5416308;26;19996;-63
2024/04/22 09:15:58;;;;;;;2.85;2.25;;;;;;;11.30;31.99;99325.88;5414263;26;20452;-63
2024/04/22 09:18:25;;;;;;;2.28;1.90;;;;;;;11.62;31.52;99329.00;5415852;26;20007;-64
2024/04/22 09:21:09;;;;;;;2.50;2.30;;;;;;;11.79;32.28;99320.66;5415610;26;20000;-64
2024/04/22 09:23:37;;;;;;;2.50;2.10;;;;;;;12.15;31.57;99319.16;5414104;26;20339;-64
2024/04/22 09:26:05;;;;;;;2.20;2.00;;;;;;;12.25;30.89;99318.72;5415564;26;20014;-63
2024/04/22 09:28:37;;;;;;;3.05;2.10;;;;;;;12.52;29.21;99328.22;5414009;26;20000;-63
2024/04/22 09:31:05;;;;;;;3.38;2.00;;;;;;;12.39;29.15;99319.19;5416032;26;20007;-62
2024/04/22 09:33:36;;;;;;;3.47;2.10;;;;;;;12.27;29.13;99321.91;5421124;26;20052;-62
2024/04/22 09:36:04;;;;;;;2.00;1.80;;;;;;;11.91;30.19;99322.66;5420303;26;20007;-62
2024/04/22 09:38:32;;;;;;;2.38;1.77;;;;;;;12.09;30.00;99326.81;5419870;26;20471;-63
2024/04/22 09:41:12;;;;;;;5.65;2.15;;;;;;;12.19;29.03;99326.34;5419309;26;20067;-63
2024/04/22 09:43:42;;;;;;;3.05;2.05;;;;;;;12.05;29.18;99325.84;5419319;26;20012;-63
2024/04/22 09:46:17;;;;;;;3.13;1.95;;;;;;;12.03;29.17;99317.19;5417244;26;20000;-63
2024/04/22 09:48:45;;;;;;;3.78;1.98;;;;;;;12.05;30.03;99312.19;5418833;26;20351;-64
2024/04/22 09:51:14;;;;;;;1.90;1.70;;;;;;;12.24;29.69;99303.44;5416785;26;20007;-63
2024/04/22 09:53:41;;;;;;;2.88;2.17;;;;;;;12.36;29.37;99317.94;5418962;26;20007;-63
2024/04/22 09:56:13;;;;;;;2.15;1.92;;;;;;;11.96;30.53;99316.97;5418758;26;20002;-63
2024/04/22 09:58:40;;;;;;;3.10;2.47;;;;;;;11.89;30.29;99311.22;5417167;26;20007;-63
2024/04/22 10:01:07;;;;;;;2.00;1.90;;;;;;;11.64;31.26;99315.78;5418470;26;20364;-63
2024/04/22 10:03:36;;;;;;;3.05;2.05;;;;;;;11.58;31.75;99319.88;5423100;26;19999;-63
2024/04/22 10:06:05;;;;;;;2.03;1.70;;;;;;;11.73;31.56;99314.59;5421438;26;20342;-63
2024/04/22 10:08:33;;;;;;;3.15;2.03;;;;;;;11.89;31.08;99313.97;5418672;26;20003;-63
2024/04/22 10:11:11;;;;;;;2.15;1.80;;;;;;;12.15;30.17;99313.69;5416338;26;20035;-63
2024/04/22 10:13:38;;;;;;;1.73;1.63;;;;;;;12.14;30.95;99312.91;5418452;26;20011;-64
2024/04/22 10:16:05;;;;;;;4.80;2.13;;;;;;;12.03;30.98;99312.53;5418354;26;20003;-63
2024/04/22 10:18:32;;;;;;;3.55;1.77;;;;;;;12.04;30.63;99310.59;5416299;26;19992;-63
2024/04/22 10:21:02;;;;;;;2.03;1.65;;;;;;;12.21;30.70;99307.66;5417948;26;20532;-63
2024/04/22 10:23:29;;;;;;;1.70;1.60;;;;;;;12.02;30.82;99305.47;5416582;26;19995;-64
2024/04/22 10:25:55;;;;;;;2.28;1.77;;;;;;;11.74;30.64;99293.53;5418233;26;20004;-63
2024/04/22 10:28:22;;;;;;;2.95;2.13;;;;;;;11.57;31.73;99294.50;5416898;26;20003;-63
2024/04/22 10:30:49;;;;;;;2.03;1.80;;;;;;;11.58;31.71;99295.28;5417779;26;19999;-64
2024/04/22 10:33:16;;;;;;;3.33;1.88;;;;;;;11.45;31.26;99306.16;5420164;26;19999;-64
2024/04/22 10:35:42;;;;;;;2.10;1.73;;;;;;;11.40;31.49;99292.72;5426019;26;20018;-63
2024/04/22 10:38:09;;;;;;;2.30;1.92;;;;;;;11.31;32.32;99294.69;5418571;26;20007;-63
2024/04/22 10:40:36;;;;;;;3.05;2.30;;;;;;;11.44;32.35;99293.63;5417524;26;20340;-63
2024/04/22 10:43:03;;;;;;;2.97;1.80;;;;;;;11.52;32.34;99298.22;5418013;26;20467;-63
2024/04/22 10:45:30;;;;;;;2.40;2.20;;;;;;;11.49;32.36;99289.88;5417851;26;20069;-63
2024/04/22 10:47:57;;;;;;;3.92;1.95;;;;;;;11.36;32.31;99288.25;5415079;26;20000;-63
2024/04/22 10:50:43;;;;;;;4.00;2.20;;;;;;;11.29;32.00;99291.50;5417674;26;19996;-63
2024/04/22 10:53:10;;;;;;;3.70;2.10;;;;;;;11.31;31.62;99297.44;5417936;26;19995;-63
2024/04/22 10:55:36;;;;;;;2.78;2.10;;;;;;;11.10;32.52;99291.19;5417701;26;19999;-63
2024/04/22 10:58:04;;;;;;;3.33;2.30;;;;;;;10.98;34.76;99288.41;5417592;26;19996;-63
2024/04/22 11:00:32;;;;;;;2.72;2.00;;;;;;;11.38;35.18;99280.53;5417444;26;20011;-63
2024/04/22 11:02:59;;;;;;;3.38;1.95;;;;;;;11.78;34.62;99286.25;5417690;26;20032;-63
2024/04/22 11:05:26;;;;;;;3.22;2.70;;;;;;;12.13;33.49;99283.97;5427545;26;20003;-63
2024/04/22 11:07:57;;;;;;;3.38;2.60;;;;;;;12.30;33.64;99272.81;5417672;26;20528;-63
2024/04/22 11:10:24;;;;;;;2.40;2.03;;;;;;;12.48;32.78;99281.59;5417246;26;20000;-63
2024/04/22 11:13:04;;;;;;;2.42;2.13;;;;;;;12.41;31.95;99284.91;5417841;26;20000;-63
2024/04/22 11:15:31;;;;;;;3.00;2.45;;;;;;;12.31;31.50;99276.34;5417467;26;20000;-63
2024/04/22 11:18:05;;;;;;;3.05;2.13;;;;;;;12.23;31.70;99278.03;5417419;26;20007;-63
2024/04/22 11:20:32;;;;;;;3.83;2.10;;;;;;;12.10;31.81;99276.44;5418578;26;19995;-63
2024/04/22 11:22:58;;;;;;;2.33;1.95;;;;;;;11.97;32.06;99286.56;5421134;26;20348;-63
2024/04/22 11:25:26;;;;;;;2.25;1.98;;;;;;;11.69;32.28;99283.59;5418337;26;20006;-64
2024/04/22 11:27:53;;;;;;;3.13;2.13;;;;;;;11.36;33.17;99280.88;5421233;26;20053;-63
2024/04/22 11:30:20;;;;;;;2.40;2.20;;;;;;;11.19;34.52;99286.47;5420182;26;20491;-62
2024/04/22 11:32:49;;;;;;;3.28;2.42;;;;;;;11.01;36.24;99288.53;5420578;26;20348;-63
2024/04/22 11:35:16;;;;;;;3.85;2.47;;;;;;;10.78;37.59;99295.41;5427885;26;20014;-62
2024/04/22 11:37:43;;;;;;;3.75;2.17;;;;;;;10.42;38.91;99304.13;5416750;26;20337;-63
2024/04/22 11:40:09;;;;;;;2.45;2.25;;;;;;;10.25;39.43;99300.34;5414857;26;20068;-63
2024/04/22 11:42:36;;;;;;;2.97;2.67;;;;;;;10.03;39.82;99301.31;5416717;26;20004;-63
2024/04/22 11:45:04;;;;;;;3.30;2.63;;;;;;;9.83;40.72;99295.78;5417173;26;20007;-62
2024/04/22 11:47:32;;;;;;;3.33;2.50;;;;;;;9.52;40.97;99315.84;5417322;26;20415;-62